Time;durP1;ratioP1;P1;durP2;ratioP2;P2;SDS_P1;SDS_P2;PMS_P1;PMS_P2;Temp;Humidity;BMP_temperature;BMP_pressure;BME280_temperature;BME280_humidity;BME280_pressure;Samples;Min_cycle;Max_cycle;Signal;HPM_P1;HPM_P2
2022/02/10 00:13:54;;;;;;;12.77;9.18;;;;;15.90;101923.00;;;;5086601;28;20608;-85
2022/02/10 00:16:49;;;;;;;13.65;9.52;;;;;15.90;101919.00;;;;5072181;28;20205;-84
2022/02/10 00:19:44;;;;;;;12.25;9.10;;;;;15.90;101910.00;;;;5071938;28;20238;-84
2022/02/10 00:22:16;;;;;;;12.23;8.73;;;;;15.90;101914.00;;;;5076316;28;20289;-84
2022/02/10 00:35:56;;;;;;;14.57;9.85;;;;;15.90;101894.00;;;;5087518;28;20233;-84
2022/02/10 00:38:27;;;;;;;12.75;9.60;;;;;15.90;101892.00;;;;5092623;28;20633;-84
2022/02/10 00:40:55;;;;;;;13.30;9.77;;;;;15.90;101893.00;;;;5090823;28;20205;-84
2022/02/10 00:43:22;;;;;;;13.40;10.32;;;;;15.90;101887.00;;;;5091359;28;20629;-85
2022/02/10 00:45:49;;;;;;;15.25;10.35;;;;;15.90;101889.00;;;;5081615;28;20198;-84
2022/02/10 00:48:17;;;;;;;12.18;9.20;;;;;15.90;101887.00;;;;5071534;28;20195;-85
2022/02/10 00:50:49;;;;;;;13.15;10.38;;;;;15.90;101876.00;;;;5074246;28;20737;-84
2022/02/10 00:53:22;;;;;;;11.63;8.80;;;;;15.90;101875.00;;;;5092330;28;20193;-84
2022/02/10 00:55:50;;;;;;;14.02;9.90;;;;;15.90;101874.00;;;;5089664;28;20254;-85
2022/02/10 00:58:24;;;;;;;12.80;9.52;;;;;15.90;101873.00;;;;5073103;28;20199;-85
2022/02/10 01:31:14;;;;;;;12.45;7.93;;;;;15.70;101843.00;;;;5089270;28;20212;-84
2022/02/10 01:33:43;;;;;;;12.90;8.38;;;;;15.70;101840.00;;;;5073924;28;20211;-84
2022/02/10 01:36:10;;;;;;;12.93;8.75;;;;;15.60;101835.00;;;;5073283;28;20285;-83
2022/02/10 01:38:38;;;;;;;10.18;7.75;;;;;15.60;101830.00;;;;5074975;28;20202;-84
2022/02/10 01:41:41;;;;;;;9.55;8.23;;;;;15.60;101823.00;;;;5073490;28;20195;-84
2022/02/10 01:58:13;;;;;;;8.80;6.65;;;;;15.50;101803.00;;;;5089705;28;20209;-84
2022/02/10 02:03:27;;;;;;;11.88;8.50;;;;;15.50;101789.00;;;;5095679;28;20713;-84
2022/02/10 02:06:03;;;;;;;11.77;8.23;;;;;15.50;101786.00;;;;5089178;28;20613;-84
2022/02/10 02:08:35;;;;;;;9.38;7.38;;;;;15.50;101782.00;;;;5087665;28;20198;-84
2022/02/10 02:11:03;;;;;;;12.18;7.80;;;;;15.50;101780.00;;;;5086446;28;20191;-84
2022/02/10 02:13:32;;;;;;;10.73;7.10;;;;;15.50;101774.00;;;;5077308;28;20245;-84
2022/02/10 02:16:00;;;;;;;9.43;6.78;;;;;15.50;101768.00;;;;5076080;28;20295;-84
2022/02/10 02:18:28;;;;;;;9.63;7.38;;;;;15.50;101764.00;;;;5087751;28;20726;-84
2022/02/10 02:20:57;;;;;;;9.35;6.93;;;;;15.50;101760.00;;;;5073649;28;20280;-84
2022/02/10 02:23:28;;;;;;;9.02;6.97;;;;;15.50;101754.00;;;;5083427;28;20656;-83
2022/02/10 02:26:02;;;;;;;8.57;6.90;;;;;15.50;101764.00;;;;5089558;28;20652;-83
2022/02/10 02:28:33;;;;;;;10.20;7.40;;;;;15.50;101757.00;;;;5081804;28;20195;-84
2022/02/10 02:31:04;;;;;;;9.88;7.22;;;;;15.50;101751.00;;;;5088829;28;20194;-84
2022/02/10 03:04:13;;;;;;;8.68;6.55;;;;;15.30;101731.00;;;;5088608;28;20266;-84
2022/02/10 03:06:41;;;;;;;11.43;6.32;;;;;15.30;101729.00;;;;5079298;28;20656;-84
2022/02/10 03:09:11;;;;;;;9.35;6.47;;;;;15.30;101727.00;;;;5076756;28;20248;-84
2022/02/10 03:11:42;;;;;;;10.35;6.82;;;;;15.30;101721.00;;;;5089502;28;20202;-83
2022/02/10 03:14:13;;;;;;;10.13;6.93;;;;;15.30;101724.00;;;;5086882;28;20222;-84
2022/02/10 03:17:07;;;;;;;9.48;6.70;;;;;15.30;101718.00;;;;5079643;28;20282;-84
2022/02/10 03:19:53;;;;;;;8.00;6.38;;;;;15.30;101710.00;;;;5082685;28;20222;-84
2022/02/10 03:22:43;;;;;;;11.00;7.20;;;;;15.30;101708.00;;;;5087679;28;20226;-84
2022/02/10 04:01:38;;;;;;;8.43;6.22;;;;;15.10;101694.00;;;;5087440;28;20200;-84
2022/02/10 04:04:27;;;;;;;8.73;5.95;;;;;15.10;101694.00;;;;5083370;28;20198;-84
2022/02/10 04:07:31;;;;;;;9.75;5.90;;;;;15.10;101689.00;;;;5085584;28;20190;-83
2022/02/10 04:10:16;;;;;;;8.25;5.13;;;;;15.10;101696.00;;;;5083014;28;20800;-84
2022/02/10 04:15:49;;;;;;;10.80;5.90;;;;;15.00;101689.00;;;;5076815;28;20291;-83
2022/02/10 04:18:46;;;;;;;9.50;6.05;;;;;15.00;101689.00;;;;5081078;28;20190;-83
2022/02/10 04:21:23;;;;;;;11.57;6.53;;;;;15.00;101688.00;;;;5101525;28;20194;-84
2022/02/10 04:24:10;;;;;;;10.10;6.45;;;;;15.00;101695.00;;;;5087280;28;20550;-82
2022/02/10 04:26:45;;;;;;;8.25;5.53;;;;;15.00;101693.00;;;;5086608;28;20234;-84
2022/02/10 04:54:55;;;;;;;10.65;6.32;;;;;14.90;101673.00;;;;5067721;28;20198;-83
2022/02/10 04:57:43;;;;;;;10.32;7.13;;;;;14.90;101685.00;;;;5085043;28;20206;-83
2022/02/10 05:17:19;;;;;;;11.70;7.05;;;;;14.90;101664.00;;;;5089115;28;20259;-83
2022/02/10 05:20:06;;;;;;;11.68;8.02;;;;;14.90;101660.00;;;;5075668;28;20244;-82
2022/02/10 05:23:02;;;;;;;11.20;6.93;;;;;14.90;101662.00;;;;5087354;28;20234;-83
2022/02/10 05:33:51;;;;;;;11.73;7.25;;;;;14.80;101670.00;;;;5088306;28;20337;-84
2022/02/10 05:36:22;;;;;;;15.50;9.35;;;;;14.80;101668.00;;;;5089670;28;20226;-83
2022/02/10 05:38:55;;;;;;;15.13;9.05;;;;;14.80;101665.00;;;;5087537;28;20191;-83
2022/02/10 05:44:34;;;;;;;13.68;8.10;;;;;14.80;101662.00;;;;5088689;28;20198;-83
2022/02/10 05:55:34;;;;;;;18.40;8.82;;;;;14.80;101650.00;;;;5089694;28;20290;-84
2022/02/10 05:58:08;;;;;;;14.55;8.48;;;;;14.80;101651.00;;;;5088622;28;20586;-83
2022/02/10 06:51:15;;;;;;;4.10;1.15;;;;;14.60;101711.00;;;;5092184;28;20259;-88
2022/02/10 06:53:52;;;;;;;1.33;0.88;;;;;14.60;101721.00;;;;5074063;28;20195;-89
2022/02/10 07:05:24;;;;;;;1.55;0.70;;;;;14.50;101721.00;;;;5085256;28;20200;-90
2022/02/10 07:13:54;;;;;;;0.70;0.47;;;;;14.50;101731.00;;;;5085676;28;20213;-88
2022/02/10 07:52:41;;;;;;;2.15;1.20;;;;;14.40;101744.00;;;;5062580;28;20292;-87
2022/02/10 07:55:33;;;;;;;3.90;1.27;;;;;14.40;101747.00;;;;5083951;28;20223;-87
2022/02/10 07:58:36;;;;;;;1.80;1.30;;;;;14.40;101747.00;;;;5087371;28;20195;-87
2022/02/10 08:57:02;;;;;;;2.75;1.20;;;;;14.70;101816.00;;;;5090474;28;20756;-83
2022/02/10 09:05:02;;;;;;;3.13;1.15;;;;;14.80;101817.00;;;;5084629;28;20645;-80
2022/02/10 09:08:03;;;;;;;5.28;1.00;;;;;14.90;101821.00;;;;5077370;28;20202;-82
2022/02/10 09:13:40;;;;;;;2.63;1.33;;;;;14.90;101835.00;;;;5090494;28;20186;-84
2022/02/10 09:16:31;;;;;;;2.88;1.85;;;;;15.00;101837.00;;;;5083106;28;20597;-83
2022/02/10 09:19:34;;;;;;;2.35;1.35;;;;;15.00;101828.00;;;;5078190;28;20214;-82
2022/02/10 09:55:46;;;;;;;2.72;1.90;;;;;15.50;101837.00;;;;5079268;28;20287;-84
2022/02/10 10:01:15;;;;;;;4.68;2.25;;;;;15.50;101843.00;;;;5077255;28;20214;-85
2022/02/10 10:03:52;;;;;;;2.75;2.22;;;;;15.60;101847.00;;;;5083212;28;20282;-85
2022/02/10 10:06:26;;;;;;;3.58;2.63;;;;;15.60;101852.00;;;;5092314;28;20283;-84
2022/02/10 10:09:19;;;;;;;4.50;2.55;;;;;15.60;101849.00;;;;5091568;28;20195;-84
2022/02/10 10:12:22;;;;;;;3.22;2.05;;;;;15.60;101857.00;;;;5081429;28;20248;-82
2022/02/10 10:15:16;;;;;;;4.85;2.65;;;;;15.60;101861.00;;;;5077319;28;20199;-86
2022/02/10 10:18:09;;;;;;;3.65;2.70;;;;;15.70;101862.00;;;;5087654;28;20259;-82
2022/02/10 10:21:03;;;;;;;5.20;3.22;;;;;15.70;101864.00;;;;5088266;28;20653;-82
2022/02/10 10:23:46;;;;;;;4.90;3.30;;;;;15.80;101859.00;;;;5088024;28;20648;-82
2022/02/10 10:26:33;;;;;;;5.65;3.33;;;;;15.90;101870.00;;;;5080782;28;20183;-83
2022/02/10 10:49:45;;;;;;;4.50;2.15;;;;;16.00;101875.00;;;;5052134;28;20224;-81
2022/02/10 10:52:24;;;;;;;4.85;1.90;;;;;16.10;101880.00;;;;5076871;28;20200;-84
2022/02/10 10:55:05;;;;;;;4.03;1.40;;;;;16.20;101870.00;;;;5079616;28;20195;-83
2022/02/10 10:57:37;;;;;;;3.97;1.75;;;;;16.20;101870.00;;;;5078189;28;20223;-82
2022/02/10 11:00:29;;;;;;;2.50;1.20;;;;;16.20;101883.00;;;;5085313;28;20190;-83
2022/02/10 11:37:17;;;;;;;1.85;0.60;;;;;16.10;101878.00;;;;5084302;28;20229;-85
2022/02/10 11:40:07;;;;;;;4.15;1.20;;;;;16.10;101878.00;;;;5086503;28;20197;-85
2022/02/10 11:42:44;;;;;;;3.60;0.85;;;;;16.20;101880.00;;;;5069638;28;20195;-85
2022/02/10 12:29:56;;;;;;;2.63;1.27;;;;;16.20;101883.00;;;;5093869;28;20202;-83
2022/02/10 13:23:40;;;;;;;2.00;0.40;;;;;15.60;101875.00;;;;5083671;28;20575;-83
2022/02/10 13:32:45;;;;;;;1.40;0.85;;;;;15.50;101862.00;;;;5089164;28;20580;-83
2022/02/10 14:13:46;;;;;;;1.85;0.60;;;;;15.10;101847.00;;;;5087406;28;20694;-82
2022/02/10 14:19:12;;;;;;;3.75;0.60;;;;;15.20;101853.00;;;;5073255;28;20225;-82
2022/02/10 14:21:47;;;;;;;1.08;0.45;;;;;15.30;101850.00;;;;5075766;28;20198;-82
2022/02/10 14:27:02;;;;;;;1.85;0.70;;;;;15.40;101856.00;;;;5081429;28;20305;-84
2022/02/10 14:29:30;;;;;;;2.67;0.68;;;;;15.40;101857.00;;;;5087124;28;20198;-82
2022/02/10 14:31:57;;;;;;;4.22;0.77;;;;;15.50;101852.00;;;;5070514;28;20552;-81
2022/02/10 14:34:27;;;;;;;3.65;0.90;;;;;15.50;101853.00;;;;5076806;28;20214;-82
2022/02/10 14:37:13;;;;;;;3.03;0.47;;;;;15.50;101864.00;;;;5081129;28;20229;-81
2022/02/10 14:40:01;;;;;;;1.17;0.30;;;;;15.50;101870.00;;;;5069858;28;20609;-82
2022/02/10 14:42:58;;;;;;;3.53;0.93;;;;;15.50;101873.00;;;;5082572;28;20198;-82
2022/02/10 15:21:42;;;;;;;1.23;0.40;;;;;15.00;101880.00;;;;5078507;28;20670;-82
2022/02/10 15:31:26;;;;;;;4.65;0.57;;;;;14.90;101890.00;;;;5067992;28;20202;-83
2022/02/10 15:33:37;;;;;;;2.92;0.73;;;;;14.80;101888.00;;;;5085540;28;20196;-83
2022/02/10 15:36:38;;;;;;;4.25;0.80;;;;;14.70;101891.00;;;;5083456;28;20199;-84
2022/02/10 15:56:18;;;;;;;1.60;0.32;;;;;14.40;101878.00;;;;5054377;28;20260;-84
2022/02/10 16:18:23;;;;;;;2.38;0.30;;;;;14.20;101879.00;;;;5084800;28;20303;-83
2022/02/10 16:20:59;;;;;;;1.73;0.30;;;;;14.20;101890.00;;;;5088131;28;20249;-84
2022/02/10 16:23:30;;;;;;;1.65;0.85;;;;;14.20;101887.00;;;;5081887;28;20198;-86
2022/02/10 16:26:10;;;;;;;4.15;0.80;;;;;14.20;101885.00;;;;5084410;28;20298;-86
2022/02/10 16:28:40;;;;;;;2.47;0.60;;;;;14.10;101889.00;;;;5080691;28;20277;-85
2022/02/10 16:31:09;;;;;;;2.75;1.13;;;;;14.10;101883.00;;;;5081954;28;20206;-85
2022/02/10 16:33:36;;;;;;;2.53;0.50;;;;;14.10;101882.00;;;;5083271;28;20206;-85
2022/02/10 16:36:06;;;;;;;3.15;0.60;;;;;14.10;101882.00;;;;5080554;28;20210;-84
2022/02/10 16:38:37;;;;;;;1.50;0.50;;;;;14.00;101879.00;;;;5073667;28;20190;-84
2022/02/10 16:41:04;;;;;;;1.83;0.40;;;;;14.00;101870.00;;;;5073242;28;20222;-83
2022/02/10 16:43:31;;;;;;;3.30;0.88;;;;;14.00;101865.00;;;;5073028;28;20408;-85
2022/02/10 16:45:59;;;;;;;0.95;0.38;;;;;14.00;101871.00;;;;5083977;28;20201;-84
2022/02/10 16:48:33;;;;;;;2.88;0.68;;;;;13.90;101874.00;;;;5089741;28;20209;-84
2022/02/10 16:51:01;;;;;;;1.83;0.68;;;;;13.90;101875.00;;;;5080388;28;20194;-85
2022/02/10 16:53:30;;;;;;;2.05;0.63;;;;;13.90;101878.00;;;;5086877;28;20568;-84
2022/02/10 16:56:02;;;;;;;3.58;0.60;;;;;13.80;101870.00;;;;5069307;28;20205;-85
2022/02/10 16:58:35;;;;;;;2.55;0.88;;;;;13.80;101876.00;;;;5070489;28;20569;-82
2022/02/10 17:04:20;;;;;;;3.63;1.00;;;;;13.70;101883.00;;;;5077627;28;20209;-85
2022/02/10 17:18:00;;;;;;;4.93;1.05;;;;;13.50;101885.00;;;;5067550;28;20233;-83
2022/02/10 17:20:43;;;;;;;2.15;0.55;;;;;13.50;101900.00;;;;5070550;28;20235;-82
2022/02/10 17:28:40;;;;;;;5.22;0.70;;;;;13.40;101890.00;;;;5090500;28;20194;-83
2022/02/10 17:31:25;;;;;;;2.65;0.60;;;;;13.40;101887.00;;;;5075171;28;20293;-82
2022/02/10 17:34:13;;;;;;;2.88;0.85;;;;;13.30;101891.00;;;;5082576;28;20749;-82
2022/02/10 17:36:49;;;;;;;1.80;0.85;;;;;13.40;101893.00;;;;5091342;28;20295;-84
2022/02/10 17:42:28;;;;;;;6.18;0.47;;;;;13.40;101905.00;;;;5033230;28;20215;-82
2022/02/10 17:45:12;;;;;;;2.55;0.93;;;;;13.40;101907.00;;;;5084058;28;20198;-82
2022/02/10 17:53:22;;;;;;;7.78;0.90;;;;;13.20;101915.00;;;;5085080;28;20268;-81
2022/02/10 17:55:50;;;;;;;3.42;0.40;;;;;13.20;101909.00;;;;5082763;28;20244;-80
2022/02/10 17:58:22;;;;;;;1.30;0.40;;;;;13.20;101906.00;;;;5089508;28;21004;-81
2022/02/10 18:00:50;;;;;;;3.65;0.88;;;;;13.20;101903.00;;;;5092174;28;20209;-81
2022/02/10 18:03:18;;;;;;;1.27;0.50;;;;;13.20;101910.00;;;;5083694;28;20290;-81
2022/02/10 18:06:10;;;;;;;1.95;0.60;;;;;13.20;101912.00;;;;5083510;28;20202;-81
2022/02/10 18:08:44;;;;;;;1.23;0.63;;;;;13.10;101916.00;;;;5086494;28;20198;-80
2022/02/10 18:14:01;;;;;;;2.55;0.50;;;;;13.10;101916.00;;;;5063951;28;20259;-80
2022/02/10 18:16:32;;;;;;;4.97;1.17;;;;;13.10;101923.00;;;;5077777;28;20234;-80
2022/02/10 18:19:05;;;;;;;1.98;0.65;;;;;13.10;101925.00;;;;5069166;28;20322;-80
2022/02/10 18:21:54;;;;;;;2.92;0.60;;;;;13.00;101935.00;;;;5085251;28;20202;-80
2022/02/10 18:27:16;;;;;;;2.13;0.82;;;;;13.00;101941.00;;;;5087262;28;20228;-81
2022/02/10 18:30:11;;;;;;;1.02;0.50;;;;;13.00;101935.00;;;;5084000;28;20198;-79
2022/02/10 19:08:59;;;;;;;1.52;0.70;;;;;12.90;101946.00;;;;5087954;28;20255;-80
2022/02/10 19:11:27;;;;;;;2.05;0.70;;;;;12.90;101942.00;;;;5088202;28;20190;-80
2022/02/10 19:13:56;;;;;;;1.17;0.52;;;;;12.80;101945.00;;;;5082464;28;20203;-79
2022/02/10 19:16:25;;;;;;;2.80;1.10;;;;;12.80;101945.00;;;;5067847;28;20281;-80
2022/02/10 19:18:53;;;;;;;2.13;0.70;;;;;12.80;101935.00;;;;5068007;28;20228;-80
2022/02/10 19:21:21;;;;;;;4.55;0.88;;;;;12.80;101946.00;;;;5076332;28;20200;-80
2022/02/10 19:23:48;;;;;;;3.67;1.25;;;;;12.80;101941.00;;;;5087654;28;20289;-80
2022/02/10 19:26:16;;;;;;;4.15;0.98;;;;;12.80;101938.00;;;;5078923;28;20191;-80
2022/02/10 19:28:43;;;;;;;1.20;0.70;;;;;12.80;101944.00;;;;5075033;28;20202;-80
2022/02/10 19:31:12;;;;;;;4.22;0.90;;;;;12.80;101945.00;;;;5071924;28;20214;-81
2022/02/10 19:33:39;;;;;;;1.48;0.70;;;;;12.80;101941.00;;;;5079306;28;20610;-80
2022/02/10 19:36:08;;;;;;;16.10;1.75;;;;;12.80;101939.00;;;;5078626;28;20205;-80
2022/02/10 19:38:35;;;;;;;2.85;1.25;;;;;12.80;101931.00;;;;5069607;28;20230;-80
2022/02/10 19:41:02;;;;;;;1.30;0.65;;;;;12.80;101932.00;;;;5076913;28;20205;-80
2022/02/10 19:43:30;;;;;;;3.20;1.00;;;;;12.80;101935.00;;;;5086935;28;20198;-81
2022/02/10 19:45:57;;;;;;;3.42;0.80;;;;;12.80;101931.00;;;;5073915;28;20217;-81
2022/02/10 19:48:26;;;;;;;3.45;0.80;;;;;12.70;101930.00;;;;5085565;28;20199;-80
2022/02/10 19:50:54;;;;;;;3.65;0.85;;;;;12.80;101941.00;;;;5087049;28;20197;-80
2022/02/10 19:53:23;;;;;;;2.22;0.90;;;;;12.70;101941.00;;;;5086982;28;20198;-81
2022/02/10 19:55:52;;;;;;;1.67;1.23;;;;;12.70;101942.00;;;;5084046;28;20205;-80
2022/02/10 19:58:22;;;;;;;2.00;0.90;;;;;12.70;101941.00;;;;5082085;28;20700;-80
2022/02/10 20:00:55;;;;;;;2.08;0.63;;;;;12.70;101944.00;;;;5073037;28;20199;-80
2022/02/10 20:03:24;;;;;;;2.53;1.08;;;;;12.70;101941.00;;;;5067312;28;20725;-80
2022/02/10 20:05:51;;;;;;;2.47;0.90;;;;;12.60;101947.00;;;;5067810;28;20209;-80
2022/02/10 20:08:21;;;;;;;3.53;0.90;;;;;12.60;101937.00;;;;5088057;28;20264;-80
2022/02/10 20:10:54;;;;;;;2.22;0.75;;;;;12.60;101946.00;;;;5079415;28;20317;-81
2022/02/10 20:13:22;;;;;;;2.20;1.27;;;;;12.60;101947.00;;;;5099362;28;20194;-80
2022/02/10 20:15:50;;;;;;;3.45;1.00;;;;;12.60;101954.00;;;;5080319;28;20250;-81
2022/02/10 20:18:18;;;;;;;3.80;0.95;;;;;12.50;101950.00;;;;5070710;28;20236;-80
2022/02/10 20:20:48;;;;;;;3.55;0.98;;;;;12.50;101954.00;;;;5083904;28;20222;-80
2022/02/10 20:23:17;;;;;;;2.55;0.70;;;;;12.50;101950.00;;;;5072767;28;20740;-80
2022/02/10 20:25:44;;;;;;;1.20;0.80;;;;;12.50;101949.00;;;;5088021;28;20205;-80
2022/02/10 20:28:13;;;;;;;1.33;0.63;;;;;12.50;101950.00;;;;5083504;28;20205;-80
2022/02/10 20:30:41;;;;;;;2.90;1.00;;;;;12.50;101949.00;;;;5088621;28;21026;-81
2022/02/10 20:33:19;;;;;;;3.13;0.73;;;;;12.40;101947.00;;;;5078743;28;20191;-80
2022/02/10 20:35:50;;;;;;;3.00;0.98;;;;;12.40;101957.00;;;;5078193;28;20221;-80
2022/02/10 20:38:19;;;;;;;2.70;0.50;;;;;12.40;101959.00;;;;5087197;28;20309;-80
2022/02/10 20:40:54;;;;;;;3.92;1.30;;;;;12.40;101957.00;;;;5085054;28;20198;-80
2022/02/10 20:43:24;;;;;;;3.35;0.88;;;;;12.30;101940.00;;;;5078854;28;20233;-80
2022/02/10 20:45:56;;;;;;;3.35;0.90;;;;;12.30;101942.00;;;;5074184;28;20214;-79
2022/02/10 20:48:26;;;;;;;2.47;0.95;;;;;12.30;101948.00;;;;5076271;28;20203;-80
2022/02/10 20:50:56;;;;;;;2.50;0.70;;;;;12.20;101944.00;;;;5086741;28;20288;-80
2022/02/10 20:53:24;;;;;;;1.35;1.02;;;;;12.20;101938.00;;;;5088040;28;20242;-80
2022/02/10 20:55:53;;;;;;;4.00;1.08;;;;;12.20;101941.00;;;;5072608;28;20203;-80
2022/02/10 20:58:24;;;;;;;2.28;0.68;;;;;12.10;101940.00;;;;5070302;28;20226;-80
2022/02/10 21:00:53;;;;;;;2.35;1.20;;;;;12.10;101940.00;;;;5079953;28;20208;-80
2022/02/10 21:03:23;;;;;;;4.35;0.82;;;;;12.00;101942.00;;;;5074560;28;20203;-79
2022/02/10 21:05:54;;;;;;;3.28;1.27;;;;;12.00;101936.00;;;;5081914;28;20276;-80
2022/02/10 21:08:31;;;;;;;2.15;0.80;;;;;12.00;101931.00;;;;5088730;28;20289;-79
2022/02/10 21:10:59;;;;;;;3.08;1.00;;;;;12.00;101932.00;;;;5081949;28;20297;-80
2022/02/10 21:13:29;;;;;;;2.58;1.30;;;;;12.00;101920.00;;;;5086045;28;20186;-80
2022/02/10 21:15:56;;;;;;;3.67;1.50;;;;;12.00;101927.00;;;;5084256;28;20659;-80
2022/02/10 21:18:25;;;;;;;2.55;1.45;;;;;12.00;101926.00;;;;5073595;28;20226;-80
2022/02/10 21:20:57;;;;;;;2.28;1.35;;;;;12.00;101926.00;;;;5081978;28;20214;-80
2022/02/10 21:23:29;;;;;;;2.53;1.42;;;;;12.00;101927.00;;;;5102122;28;20206;-80
2022/02/10 21:25:59;;;;;;;4.63;1.35;;;;;12.00;101928.00;;;;5090062;28;20217;-80
2022/02/10 21:28:30;;;;;;;3.90;1.00;;;;;12.00;101923.00;;;;5088748;28;20202;-80
2022/02/10 21:31:01;;;;;;;4.50;1.77;;;;;12.00;101923.00;;;;5089094;28;20190;-80
2022/02/10 21:33:42;;;;;;;4.88;1.23;;;;;12.00;101921.00;;;;5089376;28;20614;-80
2022/02/10 21:39:00;;;;;;;3.45;1.15;;;;;11.90;101934.00;;;;5086395;28;20761;-80
2022/02/10 21:53:15;;;;;;;1.35;1.10;;;;;11.80;101937.00;;;;5089247;28;20274;-80
2022/02/10 21:55:55;;;;;;;2.10;1.25;;;;;11.70;101929.00;;;;5087670;28;20654;-80
2022/02/10 22:09:39;;;;;;;2.22;0.98;;;;;11.50;101933.00;;;;5051405;28;20687;-81
2022/02/10 22:16:18;;;;;;;5.20;1.52;;;;;11.50;101937.00;;;;5075743;28;20270;-81
2022/02/10 22:20:44;;;;;;;2.80;0.77;;;;;11.40;101934.00;;;;5075925;28;20311;-80
2022/02/10 22:23:17;;;;;;;5.45;1.40;;;;;11.40;101940.00;;;;5088390;28;20197;-80
2022/02/10 22:25:45;;;;;;;2.22;1.20;;;;;11.30;101934.00;;;;5076107;28;20309;-80
2022/02/10 22:28:25;;;;;;;1.85;1.35;;;;;11.30;101942.00;;;;5089664;28;20293;-80
2022/02/10 22:31:03;;;;;;;3.42;1.05;;;;;11.20;101931.00;;;;5083673;28;20289;-80
2022/02/10 22:33:45;;;;;;;3.70;1.20;;;;;11.20;101943.00;;;;5096550;28;20186;-80
2022/02/10 22:36:15;;;;;;;2.20;1.10;;;;;11.20;101935.00;;;;5089115;28;20182;-80
2022/02/10 22:38:43;;;;;;;2.42;1.05;;;;;11.20;101942.00;;;;5077093;28;20223;-80
2022/02/10 22:41:12;;;;;;;2.08;0.95;;;;;11.10;101942.00;;;;5074131;28;20746;-80
2022/02/10 22:43:40;;;;;;;2.78;0.98;;;;;11.10;101922.00;;;;5069473;28;20217;-80
2022/02/10 22:46:08;;;;;;;2.10;0.90;;;;;11.10;101930.00;;;;5073679;28;20202;-80
2022/02/10 22:48:37;;;;;;;1.17;0.80;;;;;11.10;101925.00;;;;5088959;28;20202;-80
2022/02/10 22:51:05;;;;;;;2.55;0.90;;;;;11.00;101925.00;;;;5089027;28;20205;-80
2022/02/10 22:53:32;;;;;;;2.00;1.15;;;;;11.00;101927.00;;;;5088689;28;20205;-80
2022/02/10 22:55:59;;;;;;;3.03;1.20;;;;;11.00;101926.00;;;;5087934;28;20657;-80
2022/02/10 22:58:27;;;;;;;4.03;1.20;;;;;11.00;101935.00;;;;5089252;28;20237;-80
2022/02/10 23:00:54;;;;;;;1.63;0.93;;;;;10.90;101935.00;;;;5083826;28;20202;-80
2022/02/10 23:03:23;;;;;;;6.13;1.10;;;;;10.90;101938.00;;;;5088321;28;20664;-79
2022/02/10 23:05:54;;;;;;;2.95;1.17;;;;;10.80;101940.00;;;;5088645;28;20206;-79
2022/02/10 23:08:22;;;;;;;1.42;0.80;;;;;10.80;101943.00;;;;5075331;28;20199;-80
2022/02/10 23:10:50;;;;;;;2.35;1.13;;;;;10.80;101942.00;;;;5078238;28;20194;-80
2022/02/10 23:13:20;;;;;;;1.85;1.17;;;;;10.70;101946.00;;;;5087924;28;20673;-80
2022/02/10 23:15:48;;;;;;;3.75;1.27;;;;;10.70;101946.00;;;;5087505;28;20198;-80
2022/02/10 23:18:17;;;;;;;1.73;0.75;;;;;10.70;101947.00;;;;5071940;28;20646;-80
2022/02/10 23:20:48;;;;;;;3.00;0.98;;;;;10.70;101945.00;;;;5071799;28;20227;-80
2022/02/10 23:23:18;;;;;;;2.70;0.57;;;;;10.70;101937.00;;;;5081239;28;20237;-81
2022/02/10 23:25:47;;;;;;;1.63;0.77;;;;;10.60;101943.00;;;;5074158;28;20201;-80
2022/02/10 23:28:17;;;;;;;3.08;0.93;;;;;10.60;101940.00;;;;5087023;28;20202;-80
2022/02/10 23:30:46;;;;;;;1.30;0.63;;;;;10.60;101940.00;;;;5084273;28;20201;-80
2022/02/10 23:33:18;;;;;;;4.10;1.20;;;;;10.60;101935.00;;;;5067671;28;20199;-80
2022/02/10 23:38:53;;;;;;;1.55;0.60;;;;;10.50;101940.00;;;;5086976;28;20705;-81
2022/02/10 23:44:11;;;;;;;1.63;0.88;;;;;10.50;101946.00;;;;5079317;28;20197;-81
2022/02/10 23:46:41;;;;;;;3.45;0.70;;;;;10.50;101941.00;;;;5074302;28;20199;-81
2022/02/10 23:49:08;;;;;;;3.55;0.90;;;;;10.50;101946.00;;;;5071148;28;20203;-80
2022/02/10 23:51:43;;;;;;;4.50;0.80;;;;;10.50;101942.00;;;;5068103;28;20586;-80
2022/02/10 23:54:12;;;;;;;2.95;1.00;;;;;10.50;101937.00;;;;5069760;28;20194;-81
2022/02/10 23:56:45;;;;;;;3.17;0.70;;;;;10.40;101944.00;;;;5071863;28;20209;-81
2022/02/10 23:59:19;;;;;;;3.20;0.88;;;;;10.40;101937.00;;;;5086294;28;20248;-81
